sensor_id;sensor_type;location;lat;lon;timestamp;P1;durP1;ratioP1;P2;durP2;ratioP2
50851;SDS011;43953;45.508;-122.806;2023-04-15T00:00:01;1.50;;;1.00;;
50851;SDS011;43953;45.508;-122.806;2023-04-15T00:00:33;1.13;;;1.02;;
50851;SDS011;43953;45.508;-122.806;2023-04-15T00:01:05;1.92;;;1.00;;
50851;SDS011;43953;45.508;-122.806;2023-04-15T00:01:37;1.15;;;1.05;;
50851;SDS011;43953;45.508;-122.806;2023-04-15T00:02:13;1.55;;;1.00;;
50851;SDS011;43953;45.508;-122.806;2023-04-15T00:02:47;1.00;;;1.00;;
50851;SDS011;43953;45.508;-122.806;2023-04-15T00:03:19;1.65;;;1.30;;
50851;SDS011;43953;45.508;-122.806;2023-04-15T00:03:51;1.40;;;1.10;;
50851;SDS011;43953;45.508;-122.806;2023-04-15T00:04:24;2.05;;;1.05;;
50851;SDS011;43953;45.508;-122.806;2023-04-15T00:04:56;1.42;;;1.23;;
50851;SDS011;43953;45.508;-122.806;2023-04-15T00:05:31;1.88;;;1.17;;
50851;SDS011;43953;45.508;-122.806;2023-04-15T00:06:03;1.20;;;1.10;;
50851;SDS011;43953;45.508;-122.806;2023-04-15T00:06:35;1.70;;;1.17;;
50851;SDS011;43953;45.508;-122.806;2023-04-15T00:07:07;1.60;;;1.20;;
50851;SDS011;43953;45.508;-122.806;2023-04-15T00:07:39;1.20;;;1.10;;
50851;SDS011;43953;45.508;-122.806;2023-04-15T00:08:11;1.30;;;1.13;;
50851;SDS011;43953;45.508;-122.806;2023-04-15T00:08:43;1.10;;;1.00;;
50851;SDS011;43953;45.508;-122.806;2023-04-15T00:09:15;1.60;;;1.10;;
50851;SDS011;43953;45.508;-122.806;2023-04-15T00:09:47;1.35;;;1.10;;
50851;SDS011;43953;45.508;-122.806;2023-04-15T00:10:19;1.13;;;0.98;;
50851;SDS011;43953;45.508;-122.806;2023-04-15T00:10:51;1.60;;;0.90;;
50851;SDS011;43953;45.508;-122.806;2023-04-15T00:11:23;1.67;;;0.98;;
50851;SDS011;43953;45.508;-122.806;2023-04-15T00:11:55;1.20;;;1.08;;
50851;SDS011;43953;45.508;-122.806;2023-04-15T00:12:27;1.40;;;1.00;;
50851;SDS011;43953;45.508;-122.806;2023-04-15T00:12:59;1.35;;;1.17;;
50851;SDS011;43953;45.508;-122.806;2023-04-15T00:13:32;1.58;;;1.00;;
50851;SDS011;43953;45.508;-122.806;2023-04-15T00:14:04;1.30;;;1.20;;
50851;SDS011;43953;45.508;-122.806;2023-04-15T00:14:37;1.30;;;1.20;;
50851;SDS011;43953;45.508;-122.806;2023-04-15T00:15:09;2.42;;;1.10;;
50851;SDS011;43953;45.508;-122.806;2023-04-15T00:15:42;1.60;;;1.40;;
50851;SDS011;43953;45.508;-122.806;2023-04-15T00:16:14;1.80;;;1.25;;
50851;SDS011;43953;45.508;-122.806;2023-04-15T00:16:46;1.50;;;1.17;;
50851;SDS011;43953;45.508;-122.806;2023-04-15T00:17:19;1.45;;;1.02;;
50851;SDS011;43953;45.508;-122.806;2023-04-15T00:17:51;1.63;;;1.20;;
50851;SDS011;43953;45.508;-122.806;2023-04-15T00:18:23;2.08;;;1.30;;
50851;SDS011;43953;45.508;-122.806;2023-04-15T00:18:55;1.30;;;1.20;;
50851;SDS011;43953;45.508;-122.806;2023-04-15T00:19:27;2.42;;;1.17;;
50851;SDS011;43953;45.508;-122.806;2023-04-15T00:20:00;2.92;;;1.50;;
50851;SDS011;43953;45.508;-122.806;2023-04-15T00:20:32;1.38;;;1.23;;
50851;SDS011;43953;45.508;-122.806;2023-04-15T00:21:05;1.40;;;1.30;;
50851;SDS011;43953;45.508;-122.806;2023-04-15T00:21:36;1.83;;;1.20;;
50851;SDS011;43953;45.508;-122.806;2023-04-15T00:22:08;1.10;;;0.98;;
50851;SDS011;43953;45.508;-122.806;2023-04-15T00:22:40;2.05;;;1.17;;
50851;SDS011;43953;45.508;-122.806;2023-04-15T00:23:12;1.70;;;1.42;;
50851;SDS011;43953;45.508;-122.806;2023-04-15T00:23:43;1.42;;;1.25;;
50851;SDS011;43953;45.508;-122.806;2023-04-15T00:24:19;2.30;;;1.30;;
50851;SDS011;43953;45.508;-122.806;2023-04-15T00:24:54;1.45;;;1.20;;
50851;SDS011;43953;45.508;-122.806;2023-04-15T00:25:26;1.67;;;1.23;;
50851;SDS011;43953;45.508;-122.806;2023-04-15T00:25:58;1.30;;;1.20;;
50851;SDS011;43953;45.508;-122.806;2023-04-15T00:26:30;2.25;;;1.30;;
50851;SDS011;43953;45.508;-122.806;2023-04-15T00:27:02;2.08;;;1.20;;
50851;SDS011;43953;45.508;-122.806;2023-04-15T00:27:34;1.30;;;1.20;;
50851;SDS011;43953;45.508;-122.806;2023-04-15T00:28:06;1.50;;;1.40;;
50851;SDS011;43953;45.508;-122.806;2023-04-15T00:28:38;1.65;;;1.30;;
50851;SDS011;43953;45.508;-122.806;2023-04-15T00:29:10;1.63;;;1.20;;
50851;SDS011;43953;45.508;-122.806;2023-04-15T00:29:41;1.27;;;1.17;;
50851;SDS011;43953;45.508;-122.806;2023-04-15T00:30:13;1.63;;;1.10;;
50851;SDS011;43953;45.508;-122.806;2023-04-15T00:30:45;1.77;;;1.30;;
50851;SDS011;43953;45.508;-122.806;2023-04-15T00:31:17;2.00;;;1.20;;
50851;SDS011;43953;45.508;-122.806;2023-04-15T00:31:48;2.08;;;1.27;;
50851;SDS011;43953;45.508;-122.806;2023-04-15T00:32:20;1.30;;;1.20;;
50851;SDS011;43953;45.508;-122.806;2023-04-15T00:32:53;1.20;;;1.00;;
50851;SDS011;43953;45.508;-122.806;2023-04-15T00:33:25;1.20;;;0.95;;
50851;SDS011;43953;45.508;-122.806;2023-04-15T00:33:56;1.48;;;1.00;;
50851;SDS011;43953;45.508;-122.806;2023-04-15T00:34:29;1.25;;;1.15;;
50851;SDS011;43953;45.508;-122.806;2023-04-15T00:35:01;1.17;;;1.05;;
50851;SDS011;43953;45.508;-122.806;2023-04-15T00:35:34;1.30;;;1.20;;
50851;SDS011;43953;45.508;-122.806;2023-04-15T00:36:07;1.38;;;1.27;;
50851;SDS011;43953;45.508;-122.806;2023-04-15T00:36:39;1.23;;;1.13;;
50851;SDS011;43953;45.508;-122.806;2023-04-15T00:37:11;1.30;;;1.17;;
50851;SDS011;43953;45.508;-122.806;2023-04-15T00:37:43;1.92;;;1.00;;
50851;SDS011;43953;45.508;-122.806;2023-04-15T00:38:15;1.13;;;1.00;;
50851;SDS011;43953;45.508;-122.806;2023-04-15T00:38:47;1.88;;;1.20;;
50851;SDS011;43953;45.508;-122.806;2023-04-15T00:39:19;2.38;;;1.10;;
50851;SDS011;43953;45.508;-122.806;2023-04-15T00:39:51;1.40;;;1.10;;
50851;SDS011;43953;45.508;-122.806;2023-04-15T00:40:23;1.10;;;1.00;;
50851;SDS011;43953;45.508;-122.806;2023-04-15T00:40:56;1.50;;;1.23;;
50851;SDS011;43953;45.508;-122.806;2023-04-15T00:41:27;1.35;;;1.00;;
50851;SDS011;43953;45.508;-122.806;2023-04-15T00:41:59;1.30;;;1.10;;
50851;SDS011;43953;45.508;-122.806;2023-04-15T00:42:33;1.63;;;1.20;;
50851;SDS011;43953;45.508;-122.806;2023-04-15T00:43:06;1.58;;;1.27;;
50851;SDS011;43953;45.508;-122.806;2023-04-15T00:43:38;2.30;;;1.30;;
50851;SDS011;43953;45.508;-122.806;2023-04-15T00:44:09;1.48;;;1.10;;
50851;SDS011;43953;45.508;-122.806;2023-04-15T00:44:41;1.63;;;1.30;;
50851;SDS011;43953;45.508;-122.806;2023-04-15T00:45:13;1.25;;;1.13;;
50851;SDS011;43953;45.508;-122.806;2023-04-15T00:45:45;1.00;;;1.00;;
50851;SDS011;43953;45.508;-122.806;2023-04-15T00:46:17;1.30;;;1.20;;
50851;SDS011;43953;45.508;-122.806;2023-04-15T00:46:53;1.88;;;1.13;;
50851;SDS011;43953;45.508;-122.806;2023-04-15T00:47:25;1.45;;;1.00;;
50851;SDS011;43953;45.508;-122.806;2023-04-15T00:47:59;1.40;;;1.30;;
50851;SDS011;43953;45.508;-122.806;2023-04-15T00:48:31;1.30;;;1.17;;
50851;SDS011;43953;45.508;-122.806;2023-04-15T00:49:04;2.28;;;1.23;;
50851;SDS011;43953;45.508;-122.806;2023-04-15T00:49:37;1.70;;;1.30;;
50851;SDS011;43953;45.508;-122.806;2023-04-15T00:50:09;1.30;;;1.10;;
50851;SDS011;43953;45.508;-122.806;2023-04-15T00:50:42;1.40;;;1.30;;
50851;SDS011;43953;45.508;-122.806;2023-04-15T00:51:14;1.85;;;1.23;;
50851;SDS011;43953;45.508;-122.806;2023-04-15T00:51:46;1.52;;;1.20;;
50851;SDS011;43953;45.508;-122.806;2023-04-15T00:52:18;3.13;;;1.40;;
50851;SDS011;43953;45.508;-122.806;2023-04-15T00:52:50;2.40;;;1.42;;
50851;SDS011;43953;45.508;-122.806;2023-04-15T00:53:22;1.50;;;1.40;;
50851;SDS011;43953;45.508;-122.806;2023-04-15T00:53:54;1.80;;;0.98;;
50851;SDS011;43953;45.508;-122.806;2023-04-15T00:54:26;1.83;;;1.40;;
50851;SDS011;43953;45.508;-122.806;2023-04-15T00:54:58;1.58;;;1.40;;
50851;SDS011;43953;45.508;-122.806;2023-04-15T00:55:30;1.40;;;1.20;;
50851;SDS011;43953;45.508;-122.806;2023-04-15T00:56:02;2.15;;;1.20;;
50851;SDS011;43953;45.508;-122.806;2023-04-15T00:56:37;1.50;;;1.40;;
50851;SDS011;43953;45.508;-122.806;2023-04-15T00:57:09;1.20;;;1.10;;
50851;SDS011;43953;45.508;-122.806;2023-04-15T00:57:41;1.58;;;1.35;;
50851;SDS011;43953;45.508;-122.806;2023-04-15T00:58:14;1.25;;;1.10;;
50851;SDS011;43953;45.508;-122.806;2023-04-15T00:58:47;1.38;;;1.27;;
50851;SDS011;43953;45.508;-122.806;2023-04-15T00:59:18;1.38;;;1.17;;
50851;SDS011;43953;45.508;-122.806;2023-04-15T00:59:51;1.85;;;1.30;;
50851;SDS011;43953;45.508;-122.806;2023-04-15T01:00:23;3.67;;;1.45;;
50851;SDS011;43953;45.508;-122.806;2023-04-15T01:00:56;1.40;;;1.23;;
50851;SDS011;43953;45.508;-122.806;2023-04-15T01:01:29;2.03;;;1.25;;
50851;SDS011;43953;45.508;-122.806;2023-04-15T01:02:02;1.52;;;1.40;;
50851;SDS011;43953;45.508;-122.806;2023-04-15T01:02:34;1.48;;;1.10;;
50851;SDS011;43953;45.508;-122.806;2023-04-15T01:03:06;1.38;;;1.17;;
50851;SDS011;43953;45.508;-122.806;2023-04-15T01:03:38;1.73;;;1.38;;
50851;SDS011;43953;45.508;-122.806;2023-04-15T01:04:11;2.13;;;1.30;;
50851;SDS011;43953;45.508;-122.806;2023-04-15T01:04:42;1.63;;;1.40;;
50851;SDS011;43953;45.508;-122.806;2023-04-15T01:05:14;1.63;;;1.40;;
50851;SDS011;43953;45.508;-122.806;2023-04-15T01:05:48;2.88;;;1.60;;
50851;SDS011;43953;45.508;-122.806;2023-04-15T01:06:20;1.75;;;1.33;;
50851;SDS011;43953;45.508;-122.806;2023-04-15T01:06:52;1.65;;;1.33;;
50851;SDS011;43953;45.508;-122.806;2023-04-15T01:07:24;2.22;;;1.50;;
50851;SDS011;43953;45.508;-122.806;2023-04-15T01:07:56;2.28;;;1.30;;
50851;SDS011;43953;45.508;-122.806;2023-04-15T01:08:28;1.83;;;1.27;;
50851;SDS011;43953;45.508;-122.806;2023-04-15T01:09:00;1.30;;;1.20;;
50851;SDS011;43953;45.508;-122.806;2023-04-15T01:09:33;2.17;;;1.25;;
50851;SDS011;43953;45.508;-122.806;2023-04-15T01:10:05;1.65;;;1.30;;
50851;SDS011;43953;45.508;-122.806;2023-04-15T01:10:37;1.65;;;1.25;;
50851;SDS011;43953;45.508;-122.806;2023-04-15T01:11:09;1.88;;;1.38;;
50851;SDS011;43953;45.508;-122.806;2023-04-15T01:11:43;1.77;;;1.30;;
50851;SDS011;43953;45.508;-122.806;2023-04-15T01:12:15;1.60;;;1.48;;
50851;SDS011;43953;45.508;-122.806;2023-04-15T01:12:48;1.70;;;1.60;;
50851;SDS011;43953;45.508;-122.806;2023-04-15T01:13:19;1.58;;;1.33;;
50851;SDS011;43953;45.508;-122.806;2023-04-15T01:13:52;1.58;;;1.40;;
50851;SDS011;43953;45.508;-122.806;2023-04-15T01:14:27;1.55;;;1.45;;
50851;SDS011;43953;45.508;-122.806;2023-04-15T01:14:59;2.22;;;1.40;;
50851;SDS011;43953;45.508;-122.806;2023-04-15T01:15:32;1.52;;;1.42;;
50851;SDS011;43953;45.508;-122.806;2023-04-15T01:16:06;2.90;;;1.42;;
50851;SDS011;43953;45.508;-122.806;2023-04-15T01:16:38;1.60;;;1.50;;
50851;SDS011;43953;45.508;-122.806;2023-04-15T01:17:10;2.63;;;1.60;;
50851;SDS011;43953;45.508;-122.806;2023-04-15T01:17:43;3.05;;;1.35;;
50851;SDS011;43953;45.508;-122.806;2023-04-15T01:18:15;1.48;;;1.27;;
50851;SDS011;43953;45.508;-122.806;2023-04-15T01:18:47;2.63;;;1.60;;
50851;SDS011;43953;45.508;-122.806;2023-04-15T01:19:19;1.63;;;1.42;;
50851;SDS011;43953;45.508;-122.806;2023-04-15T01:19:51;1.90;;;1.52;;
50851;SDS011;43953;45.508;-122.806;2023-04-15T01:20:25;3.42;;;1.58;;
50851;SDS011;43953;45.508;-122.806;2023-04-15T01:20:57;2.67;;;1.48;;
50851;SDS011;43953;45.508;-122.806;2023-04-15T01:21:35;1.98;;;1.83;;
50851;SDS011;43953;45.508;-122.806;2023-04-15T01:22:09;2.38;;;1.33;;
50851;SDS011;43953;45.508;-122.806;2023-04-15T01:22:41;1.65;;;1.55;;
50851;SDS011;43953;45.508;-122.806;2023-04-15T01:23:13;2.03;;;1.30;;
50851;SDS011;43953;45.508;-122.806;2023-04-15T01:23:46;1.80;;;1.70;;
50851;SDS011;43953;45.508;-122.806;2023-04-15T01:24:19;1.73;;;1.50;;
50851;SDS011;43953;45.508;-122.806;2023-04-15T01:24:58;1.70;;;1.35;;
50851;SDS011;43953;45.508;-122.806;2023-04-15T01:25:36;1.77;;;1.67;;
50851;SDS011;43953;45.508;-122.806;2023-04-15T01:26:08;1.33;;;1.23;;
50851;SDS011;43953;45.508;-122.806;2023-04-15T01:26:40;3.28;;;1.20;;
50851;SDS011;43953;45.508;-122.806;2023-04-15T01:27:12;2.25;;;1.67;;
50851;SDS011;43953;45.508;-122.806;2023-04-15T01:27:44;2.28;;;1.45;;
50851;SDS011;43953;45.508;-122.806;2023-04-15T01:28:16;1.70;;;1.42;;
50851;SDS011;43953;45.508;-122.806;2023-04-15T01:28:47;1.90;;;1.60;;
50851;SDS011;43953;45.508;-122.806;2023-04-15T01:29:20;1.88;;;1.38;;
50851;SDS011;43953;45.508;-122.806;2023-04-15T01:29:52;1.75;;;1.40;;
50851;SDS011;43953;45.508;-122.806;2023-04-15T01:30:24;1.50;;;1.40;;
50851;SDS011;43953;45.508;-122.806;2023-04-15T01:31:12;1.55;;;1.45;;
50851;SDS011;43953;45.508;-122.806;2023-04-15T01:31:51;1.83;;;1.30;;
50851;SDS011;43953;45.508;-122.806;2023-04-15T01:32:24;2.28;;;1.58;;
50851;SDS011;43953;45.508;-122.806;2023-04-15T01:32:56;2.13;;;1.60;;
50851;SDS011;43953;45.508;-122.806;2023-04-15T01:33:28;1.75;;;1.60;;
50851;SDS011;43953;45.508;-122.806;2023-04-15T01:34:00;2.15;;;1.30;;
50851;SDS011;43953;45.508;-122.806;2023-04-15T01:34:32;2.83;;;1.50;;
50851;SDS011;43953;45.508;-122.806;2023-04-15T01:35:04;2.15;;;1.55;;
50851;SDS011;43953;45.508;-122.806;2023-04-15T01:35:36;1.58;;;1.42;;
50851;SDS011;43953;45.508;-122.806;2023-04-15T01:36:08;1.90;;;1.67;;
50851;SDS011;43953;45.508;-122.806;2023-04-15T01:36:41;2.22;;;1.50;;
50851;SDS011;43953;45.508;-122.806;2023-04-15T01:37:12;1.73;;;1.60;;
50851;SDS011;43953;45.508;-122.806;2023-04-15T01:37:44;1.67;;;1.30;;
50851;SDS011;43953;45.508;-122.806;2023-04-15T01:38:17;1.95;;;1.70;;
50851;SDS011;43953;45.508;-122.806;2023-04-15T01:38:49;1.35;;;1.25;;
50851;SDS011;43953;45.508;-122.806;2023-04-15T01:39:21;1.45;;;1.30;;
50851;SDS011;43953;45.508;-122.806;2023-04-15T01:39:53;1.77;;;1.58;;
50851;SDS011;43953;45.508;-122.806;2023-04-15T01:40:27;1.67;;;1.45;;
50851;SDS011;43953;45.508;-122.806;2023-04-15T01:40:58;2.03;;;1.60;;
50851;SDS011;43953;45.508;-122.806;2023-04-15T01:41:30;1.60;;;1.40;;
50851;SDS011;43953;45.508;-122.806;2023-04-15T01:42:02;2.58;;;1.40;;
50851;SDS011;43953;45.508;-122.806;2023-04-15T01:42:34;1.98;;;1.50;;
50851;SDS011;43953;45.508;-122.806;2023-04-15T01:43:07;1.45;;;1.35;;
50851;SDS011;43953;45.508;-122.806;2023-04-15T01:43:39;2.30;;;1.45;;
50851;SDS011;43953;45.508;-122.806;2023-04-15T01:44:11;2.20;;;1.50;;
50851;SDS011;43953;45.508;-122.806;2023-04-15T01:44:42;2.15;;;1.50;;
50851;SDS011;43953;45.508;-122.806;2023-04-15T01:45:14;1.85;;;1.50;;
50851;SDS011;43953;45.508;-122.806;2023-04-15T01:45:46;1.50;;;1.40;;
50851;SDS011;43953;45.508;-122.806;2023-04-15T01:46:18;1.77;;;1.40;;
50851;SDS011;43953;45.508;-122.806;2023-04-15T01:46:50;4.03;;;1.55;;
50851;SDS011;43953;45.508;-122.806;2023-04-15T01:47:21;1.73;;;1.50;;
50851;SDS011;43953;45.508;-122.806;2023-04-15T01:47:53;1.80;;;1.50;;
50851;SDS011;43953;45.508;-122.806;2023-04-15T01:48:25;2.10;;;1.25;;
50851;SDS011;43953;45.508;-122.806;2023-04-15T01:48:57;1.85;;;1.50;;
50851;SDS011;43953;45.508;-122.806;2023-04-15T01:49:28;2.28;;;1.42;;
50851;SDS011;43953;45.508;-122.806;2023-04-15T01:50:00;3.38;;;1.40;;
50851;SDS011;43953;45.508;-122.806;2023-04-15T01:50:32;1.30;;;1.20;;
50851;SDS011;43953;45.508;-122.806;2023-04-15T01:51:03;1.67;;;1.40;;
50851;SDS011;43953;45.508;-122.806;2023-04-15T01:51:35;2.10;;;1.33;;
50851;SDS011;43953;45.508;-122.806;2023-04-15T01:52:07;2.10;;;1.60;;
50851;SDS011;43953;45.508;-122.806;2023-04-15T01:52:39;2.75;;;1.67;;
50851;SDS011;43953;45.508;-122.806;2023-04-15T01:53:11;1.85;;;1.60;;
50851;SDS011;43953;45.508;-122.806;2023-04-15T01:53:43;2.35;;;1.48;;
50851;SDS011;43953;45.508;-122.806;2023-04-15T01:54:15;1.98;;;1.30;;
50851;SDS011;43953;45.508;-122.806;2023-04-15T01:54:47;2.75;;;1.50;;
50851;SDS011;43953;45.508;-122.806;2023-04-15T01:55:19;2.20;;;1.40;;
50851;SDS011;43953;45.508;-122.806;2023-04-15T01:55:50;1.75;;;1.52;;
50851;SDS011;43953;45.508;-122.806;2023-04-15T01:56:22;2.92;;;1.70;;
50851;SDS011;43953;45.508;-122.806;2023-04-15T01:56:54;2.05;;;1.45;;
50851;SDS011;43953;45.508;-122.806;2023-04-15T01:57:26;1.95;;;1.42;;
50851;SDS011;43953;45.508;-122.806;2023-04-15T01:57:58;1.88;;;1.48;;
50851;SDS011;43953;45.508;-122.806;2023-04-15T01:58:30;1.80;;;1.50;;
50851;SDS011;43953;45.508;-122.806;2023-04-15T01:59:01;2.63;;;1.45;;
50851;SDS011;43953;45.508;-122.806;2023-04-15T01:59:33;1.80;;;1.50;;
50851;SDS011;43953;45.508;-122.806;2023-04-15T02:00:05;1.85;;;1.45;;
50851;SDS011;43953;45.508;-122.806;2023-04-15T02:00:37;1.55;;;1.45;;
50851;SDS011;43953;45.508;-122.806;2023-04-15T02:01:09;1.85;;;1.40;;
50851;SDS011;43953;45.508;-122.806;2023-04-15T02:01:41;1.88;;;1.40;;
50851;SDS011;43953;45.508;-122.806;2023-04-15T02:02:13;1.65;;;1.55;;
50851;SDS011;43953;45.508;-122.806;2023-04-15T02:02:45;2.03;;;1.50;;
50851;SDS011;43953;45.508;-122.806;2023-04-15T02:03:17;1.60;;;1.50;;
50851;SDS011;43953;45.508;-122.806;2023-04-15T02:03:49;1.90;;;1.55;;
50851;SDS011;43953;45.508;-122.806;2023-04-15T02:04:20;1.77;;;1.40;;
50851;SDS011;43953;45.508;-122.806;2023-04-15T02:04:52;1.55;;;1.45;;
50851;SDS011;43953;45.508;-122.806;2023-04-15T02:05:24;2.10;;;1.45;;
50851;SDS011;43953;45.508;-122.806;2023-04-15T02:05:56;2.20;;;1.42;;
50851;SDS011;43953;45.508;-122.806;2023-04-15T02:06:28;1.60;;;1.38;;
50851;SDS011;43953;45.508;-122.806;2023-04-15T02:07:00;1.60;;;1.48;;
50851;SDS011;43953;45.508;-122.806;2023-04-15T02:07:31;1.80;;;1.58;;
50851;SDS011;43953;45.508;-122.806;2023-04-15T02:08:03;2.25;;;1.40;;
50851;SDS011;43953;45.508;-122.806;2023-04-15T02:08:35;2.72;;;1.60;;
50851;SDS011;43953;45.508;-122.806;2023-04-15T02:09:07;1.67;;;1.40;;
50851;SDS011;43953;45.508;-122.806;2023-04-15T02:09:39;1.85;;;1.50;;
50851;SDS011;43953;45.508;-122.806;2023-04-15T02:10:11;2.55;;;1.70;;
50851;SDS011;43953;45.508;-122.806;2023-04-15T02:10:43;1.98;;;1.55;;
50851;SDS011;43953;45.508;-122.806;2023-04-15T02:11:15;1.60;;;1.50;;
50851;SDS011;43953;45.508;-122.806;2023-04-15T02:11:46;2.60;;;1.38;;
50851;SDS011;43953;45.508;-122.806;2023-04-15T02:12:18;1.52;;;1.40;;
50851;SDS011;43953;45.508;-122.806;2023-04-15T02:12:50;2.15;;;1.30;;
50851;SDS011;43953;45.508;-122.806;2023-04-15T02:13:22;1.70;;;1.52;;
50851;SDS011;43953;45.508;-122.806;2023-04-15T02:13:54;1.80;;;1.55;;
50851;SDS011;43953;45.508;-122.806;2023-04-15T02:14:26;2.05;;;1.80;;
50851;SDS011;43953;45.508;-122.806;2023-04-15T02:14:57;1.65;;;1.55;;
50851;SDS011;43953;45.508;-122.806;2023-04-15T02:15:29;2.40;;;1.65;;
50851;SDS011;43953;45.508;-122.806;2023-04-15T02:16:02;4.25;;;1.70;;
50851;SDS011;43953;45.508;-122.806;2023-04-15T02:16:34;2.10;;;1.50;;
50851;SDS011;43953;45.508;-122.806;2023-04-15T02:17:06;1.98;;;1.60;;
50851;SDS011;43953;45.508;-122.806;2023-04-15T02:17:38;1.80;;;1.70;;
50851;SDS011;43953;45.508;-122.806;2023-04-15T02:18:10;1.75;;;1.42;;
50851;SDS011;43953;45.508;-122.806;2023-04-15T02:18:43;2.20;;;1.67;;
50851;SDS011;43953;45.508;-122.806;2023-04-15T02:19:15;2.15;;;1.60;;
50851;SDS011;43953;45.508;-122.806;2023-04-15T02:19:47;2.08;;;1.88;;
50851;SDS011;43953;45.508;-122.806;2023-04-15T02:20:19;2.10;;;1.90;;
50851;SDS011;43953;45.508;-122.806;2023-04-15T02:20:51;2.60;;;1.60;;
50851;SDS011;43953;45.508;-122.806;2023-04-15T02:21:24;1.92;;;1.50;;
50851;SDS011;43953;45.508;-122.806;2023-04-15T02:21:56;2.13;;;1.45;;
50851;SDS011;43953;45.508;-122.806;2023-04-15T02:22:28;1.92;;;1.67;;
50851;SDS011;43953;45.508;-122.806;2023-04-15T02:23:00;2.90;;;1.85;;
50851;SDS011;43953;45.508;-122.806;2023-04-15T02:23:32;2.35;;;1.73;;
50851;SDS011;43953;45.508;-122.806;2023-04-15T02:24:03;3.20;;;2.05;;
50851;SDS011;43953;45.508;-122.806;2023-04-15T02:24:35;2.00;;;1.80;;
50851;SDS011;43953;45.508;-122.806;2023-04-15T02:25:07;1.95;;;1.67;;
50851;SDS011;43953;45.508;-122.806;2023-04-15T02:25:39;2.45;;;1.77;;
50851;SDS011;43953;45.508;-122.806;2023-04-15T02:26:11;2.03;;;1.70;;
50851;SDS011;43953;45.508;-122.806;2023-04-15T02:26:43;1.98;;;1.80;;
50851;SDS011;43953;45.508;-122.806;2023-04-15T02:27:15;2.85;;;1.75;;
50851;SDS011;43953;45.508;-122.806;2023-04-15T02:27:47;2.17;;;1.60;;
50851;SDS011;43953;45.508;-122.806;2023-04-15T02:28:20;1.80;;;1.70;;
50851;SDS011;43953;45.508;-122.806;2023-04-15T02:28:52;3.45;;;1.80;;
50851;SDS011;43953;45.508;-122.806;2023-04-15T02:29:23;2.35;;;1.77;;
50851;SDS011;43953;45.508;-122.806;2023-04-15T02:29:55;2.20;;;1.90;;
50851;SDS011;43953;45.508;-122.806;2023-04-15T02:30:27;1.63;;;1.52;;
50851;SDS011;43953;45.508;-122.806;2023-04-15T02:30:58;2.50;;;1.73;;
50851;SDS011;43953;45.508;-122.806;2023-04-15T02:31:32;1.95;;;1.80;;
50851;SDS011;43953;45.508;-122.806;2023-04-15T02:32:06;2.08;;;1.85;;
50851;SDS011;43953;45.508;-122.806;2023-04-15T02:32:38;3.17;;;1.65;;
50851;SDS011;43953;45.508;-122.806;2023-04-15T02:33:13;1.90;;;1.80;;
50851;SDS011;43953;45.508;-122.806;2023-04-15T02:33:45;2.08;;;1.77;;
50851;SDS011;43953;45.508;-122.806;2023-04-15T02:34:16;1.98;;;1.60;;
50851;SDS011;43953;45.508;-122.806;2023-04-15T02:34:48;2.05;;;1.85;;
50851;SDS011;43953;45.508;-122.806;2023-04-15T02:35:20;1.60;;;1.50;;
50851;SDS011;43953;45.508;-122.806;2023-04-15T02:35:55;1.95;;;1.75;;
50851;SDS011;43953;45.508;-122.806;2023-04-15T02:36:27;1.60;;;1.50;;
50851;SDS011;43953;45.508;-122.806;2023-04-15T02:36:59;3.05;;;1.70;;
50851;SDS011;43953;45.508;-122.806;2023-04-15T02:37:35;2.10;;;1.88;;
50851;SDS011;43953;45.508;-122.806;2023-04-15T02:38:13;1.90;;;1.70;;
50851;SDS011;43953;45.508;-122.806;2023-04-15T02:38:46;1.80;;;1.48;;
50851;SDS011;43953;45.508;-122.806;2023-04-15T02:39:18;2.15;;;1.67;;
50851;SDS011;43953;45.508;-122.806;2023-04-15T02:39:50;2.10;;;1.63;;
50851;SDS011;43953;45.508;-122.806;2023-04-15T02:40:21;2.30;;;1.63;;
50851;SDS011;43953;45.508;-122.806;2023-04-15T02:40:53;2.00;;;1.33;;
50851;SDS011;43953;45.508;-122.806;2023-04-15T02:41:25;1.52;;;1.42;;
50851;SDS011;43953;45.508;-122.806;2023-04-15T02:41:58;2.08;;;1.60;;
50851;SDS011;43953;45.508;-122.806;2023-04-15T02:42:30;2.92;;;1.70;;
50851;SDS011;43953;45.508;-122.806;2023-04-15T02:43:02;2.92;;;1.73;;
50851;SDS011;43953;45.508;-122.806;2023-04-15T02:43:35;2.80;;;1.75;;
50851;SDS011;43953;45.508;-122.806;2023-04-15T02:44:06;2.58;;;1.85;;
50851;SDS011;43953;45.508;-122.806;2023-04-15T02:44:39;2.13;;;1.40;;
50851;SDS011;43953;45.508;-122.806;2023-04-15T02:45:11;2.20;;;1.90;;
50851;SDS011;43953;45.508;-122.806;2023-04-15T02:45:43;2.58;;;1.60;;
50851;SDS011;43953;45.508;-122.806;2023-04-15T02:46:16;1.52;;;1.42;;
50851;SDS011;43953;45.508;-122.806;2023-04-15T02:46:48;1.90;;;1.42;;
50851;SDS011;43953;45.508;-122.806;2023-04-15T02:47:22;2.08;;;1.60;;
50851;SDS011;43953;45.508;-122.806;2023-04-15T02:47:53;2.00;;;1.52;;
50851;SDS011;43953;45.508;-122.806;2023-04-15T02:48:25;4.47;;;1.70;;
50851;SDS011;43953;45.508;-122.806;2023-04-15T02:48:57;1.90;;;1.70;;
50851;SDS011;43953;45.508;-122.806;2023-04-15T02:49:29;2.75;;;1.70;;
50851;SDS011;43953;45.508;-122.806;2023-04-15T02:50:02;1.83;;;1.50;;
50851;SDS011;43953;45.508;-122.806;2023-04-15T02:50:34;2.65;;;1.92;;
50851;SDS011;43953;45.508;-122.806;2023-04-15T02:51:13;1.85;;;1.70;;
50851;SDS011;43953;45.508;-122.806;2023-04-15T02:51:46;2.20;;;1.52;;
50851;SDS011;43953;45.508;-122.806;2023-04-15T02:52:19;1.75;;;1.63;;
50851;SDS011;43953;45.508;-122.806;2023-04-15T02:52:51;2.10;;;1.90;;
50851;SDS011;43953;45.508;-122.806;2023-04-15T02:53:22;1.88;;;1.70;;
50851;SDS011;43953;45.508;-122.806;2023-04-15T02:53:54;2.55;;;1.60;;
50851;SDS011;43953;45.508;-122.806;2023-04-15T02:54:26;2.28;;;1.40;;
50851;SDS011;43953;45.508;-122.806;2023-04-15T02:55:02;2.15;;;1.75;;
50851;SDS011;43953;45.508;-122.806;2023-04-15T02:55:35;2.92;;;1.95;;
50851;SDS011;43953;45.508;-122.806;2023-04-15T02:56:06;1.95;;;1.65;;
50851;SDS011;43953;45.508;-122.806;2023-04-15T02:56:38;1.92;;;1.65;;
50851;SDS011;43953;45.508;-122.806;2023-04-15T02:57:10;1.95;;;1.60;;
50851;SDS011;43953;45.508;-122.806;2023-04-15T02:57:42;2.50;;;1.73;;
50851;SDS011;43953;45.508;-122.806;2023-04-15T02:58:14;2.15;;;1.70;;
50851;SDS011;43953;45.508;-122.806;2023-04-15T02:58:46;1.70;;;1.58;;
50851;SDS011;43953;45.508;-122.806;2023-04-15T02:59:20;1.80;;;1.65;;
50851;SDS011;43953;45.508;-122.806;2023-04-15T02:59:52;1.67;;;1.58;;
50851;SDS011;43953;45.508;-122.806;2023-04-15T03:00:24;3.20;;;1.75;;
50851;SDS011;43953;45.508;-122.806;2023-04-15T03:00:56;2.08;;;1.73;;
50851;SDS011;43953;45.508;-122.806;2023-04-15T03:01:28;1.85;;;1.75;;
50851;SDS011;43953;45.508;-122.806;2023-04-15T03:01:59;2.05;;;1.63;;
50851;SDS011;43953;45.508;-122.806;2023-04-15T03:02:35;3.15;;;2.00;;
50851;SDS011;43953;45.508;-122.806;2023-04-15T03:03:08;2.03;;;1.83;;
50851;SDS011;43953;45.508;-122.806;2023-04-15T03:03:40;2.38;;;1.90;;
50851;SDS011;43953;45.508;-122.806;2023-04-15T03:04:12;2.85;;;1.90;;
50851;SDS011;43953;45.508;-122.806;2023-04-15T03:04:44;1.90;;;1.70;;
50851;SDS011;43953;45.508;-122.806;2023-04-15T03:05:15;2.08;;;1.80;;
50851;SDS011;43953;45.508;-122.806;2023-04-15T03:05:47;1.90;;;1.70;;
50851;SDS011;43953;45.508;-122.806;2023-04-15T03:06:19;2.20;;;2.00;;